createdAt,value
2022-12-12T00:03:29.584Z,60.52
2022-12-12T00:08:38.256Z,60.54
2022-12-12T00:13:45.815Z,60.56
2022-12-12T00:18:53.832Z,60.57
2022-12-12T00:24:01.776Z,60.60
2022-12-12T00:29:09.569Z,60.61
2022-12-12T00:34:16.842Z,60.60
2022-12-12T00:39:24.655Z,60.64
2022-12-12T00:44:32.037Z,60.65
2022-12-12T00:49:39.659Z,60.64
2022-12-12T00:54:47.454Z,60.66
2022-12-12T00:59:54.776Z,60.71
2022-12-12T01:05:02.046Z,60.77
2022-12-12T01:10:11.577Z,60.85
2022-12-12T01:15:19.098Z,60.92
2022-12-12T01:20:29.663Z,61.03
2022-12-12T01:25:37.296Z,61.09
2022-12-12T01:30:45.103Z,61.17
2022-12-12T01:35:52.577Z,61.20
2022-12-12T01:41:00.396Z,61.27
2022-12-12T01:46:37.907Z,61.35
2022-12-12T01:51:47.146Z,61.42
2022-12-12T01:56:56.776Z,61.48
2022-12-12T02:02:04.628Z,61.53
2022-12-12T02:07:12.017Z,61.59
2022-12-12T02:12:19.997Z,61.61
2022-12-12T02:17:46.944Z,61.64
2022-12-12T02:23:20.778Z,61.72
2022-12-12T02:29:00.016Z,61.79
2022-12-12T02:34:15.538Z,61.86
2022-12-12T02:39:30.144Z,61.94
2022-12-12T02:44:43.537Z,61.98
2022-12-12T02:49:55.697Z,62.07
2022-12-12T02:55:03.139Z,62.09
2022-12-12T03:00:13.940Z,62.09
2022-12-12T03:06:01.626Z,62.11
2022-12-12T03:11:13.264Z,62.14
2022-12-12T03:16:29.388Z,62.15
2022-12-12T03:21:44.819Z,62.13
2022-12-12T03:27:00.865Z,62.14
2022-12-12T03:32:13.526Z,62.15
2022-12-12T03:37:25.286Z,62.13
2022-12-12T03:42:39.017Z,62.15
2022-12-12T03:47:52.404Z,62.16
2022-12-12T03:53:05.217Z,62.15
2022-12-12T03:58:17.132Z,62.16
2022-12-12T04:03:30.675Z,62.13
2022-12-12T04:08:39.755Z,62.09
2022-12-12T04:13:59.653Z,62.03
2022-12-12T04:19:35.570Z,61.98
2022-12-12T04:25:04.249Z,61.91
2022-12-12T04:30:16.122Z,61.63
2022-12-12T04:35:29.295Z,61.36
2022-12-12T04:40:40.125Z,61.76
2022-12-12T04:45:49.988Z,61.77
2022-12-12T04:50:59.368Z,61.75
2022-12-12T04:56:12.657Z,61.75
2022-12-12T05:01:25.358Z,61.69
2022-12-12T05:06:37.285Z,61.62
2022-12-12T05:11:45.724Z,61.60
2022-12-12T05:16:55.258Z,61.56
2022-12-12T05:22:02.567Z,61.55
2022-12-12T05:27:12.347Z,61.49
2022-12-12T05:32:20.177Z,61.44
2022-12-12T05:37:27.736Z,61.42
2022-12-12T05:42:35.146Z,61.37
2022-12-12T05:47:42.570Z,61.38
2022-12-12T05:52:50.018Z,61.32
2022-12-12T05:57:57.460Z,61.31
2022-12-12T06:03:04.812Z,61.33
2022-12-12T06:08:12.430Z,61.30
2022-12-12T06:13:19.986Z,61.24
2022-12-12T06:18:27.512Z,61.22
2022-12-12T06:23:36.897Z,61.20
2022-12-12T06:28:45.124Z,61.16
2022-12-12T06:33:53.657Z,61.16
2022-12-12T06:39:02.990Z,61.15
2022-12-12T06:44:10.754Z,61.10
2022-12-12T06:49:18.388Z,61.10
2022-12-12T06:54:26.727Z,61.15
2022-12-12T06:59:34.231Z,61.20
2022-12-12T07:04:41.693Z,61.25
2022-12-12T07:09:49.085Z,61.30
2022-12-12T07:14:56.664Z,61.38
2022-12-12T07:20:04.284Z,61.40
2022-12-12T07:25:12.918Z,61.43
2022-12-12T07:30:21.055Z,61.48
2022-12-12T07:35:28.680Z,61.52
2022-12-12T07:40:36.043Z,61.53
2022-12-12T07:45:47.998Z,61.52
2022-12-12T07:50:55.768Z,61.47
2022-12-12T07:56:06.145Z,61.47
2022-12-12T08:01:16.956Z,61.49
2022-12-12T08:06:25.215Z,61.48
2022-12-12T08:11:32.576Z,61.47
2022-12-12T08:16:39.982Z,61.55
2022-12-12T08:21:47.955Z,61.64
2022-12-12T08:26:55.483Z,61.70
2022-12-12T08:32:04.562Z,61.74
2022-12-12T08:37:12.235Z,61.73
2022-12-12T08:42:19.795Z,61.67
2022-12-12T08:47:28.194Z,61.59
2022-12-12T08:52:35.999Z,61.55
2022-12-12T08:57:43.688Z,61.43
2022-12-12T09:02:51.293Z,61.39
2022-12-12T09:08:00.102Z,61.44
2022-12-12T09:13:09.158Z,61.53
2022-12-12T09:18:16.551Z,61.51
2022-12-12T09:23:26.035Z,61.45
2022-12-12T09:28:33.837Z,61.43
2022-12-12T09:33:41.215Z,61.48
2022-12-12T09:38:49.316Z,61.45
2022-12-12T09:43:59.783Z,61.55
2022-12-12T09:49:15.569Z,61.66
2022-12-12T09:54:25.336Z,61.74
2022-12-12T09:59:39.852Z,61.69
2022-12-12T10:04:56.482Z,61.63
2022-12-12T10:10:10.924Z,61.57
2022-12-12T10:15:32.668Z,61.56
2022-12-12T10:20:47.865Z,61.69
2022-12-12T10:25:58.840Z,61.64
2022-12-12T10:31:22.298Z,61.53
2022-12-12T10:36:39.386Z,61.57
2022-12-12T10:41:53.255Z,61.67
2022-12-12T10:47:06.101Z,61.83
2022-12-12T10:52:20.932Z,62.02
2022-12-12T10:57:29.995Z,62.19
2022-12-12T11:02:42.135Z,62.31
2022-12-12T11:07:48.904Z,62.51
2022-12-12T11:13:05.282Z,62.75
2022-12-12T11:18:17.882Z,62.93
2022-12-12T11:23:29.080Z,62.98
2022-12-12T11:28:39.355Z,63.01
2022-12-12T11:33:50.565Z,63.09
2022-12-12T11:38:59.924Z,63.17
2022-12-12T11:44:08.338Z,63.22
2022-12-12T11:49:22.197Z,63.34
2022-12-12T11:54:33.459Z,63.39
2022-12-12T12:00:04.356Z,63.47
2022-12-12T12:05:27.161Z,63.58
2022-12-12T12:10:41.966Z,63.70
2022-12-12T12:16:00.946Z,63.73
2022-12-12T12:21:28.529Z,63.75
2022-12-12T12:26:41.835Z,63.74
2022-12-12T12:32:02.205Z,63.71
2022-12-12T12:37:20.001Z,63.70
2022-12-12T12:42:49.290Z,63.68
2022-12-12T12:48:07.323Z,63.73
2022-12-12T12:53:28.783Z,63.63
2022-12-12T12:58:45.065Z,63.54
2022-12-12T13:03:57.847Z,63.52
2022-12-12T13:09:12.246Z,63.72
2022-12-12T13:14:30.953Z,63.18
2022-12-12T13:19:41.684Z,62.67
2022-12-12T13:24:59.804Z,62.04
2022-12-12T13:30:22.255Z,61.55
2022-12-12T13:35:34.475Z,60.93
2022-12-12T13:40:42.082Z,60.78
2022-12-12T13:45:50.080Z,60.49
2022-12-12T13:51:28.043Z,60.49
2022-12-12T13:56:41.629Z,60.59
2022-12-12T14:01:49.201Z,60.34
2022-12-12T14:07:06.524Z,60.23
2022-12-12T14:12:24.829Z,60.51
2022-12-12T14:17:42.149Z,60.73
2022-12-12T14:23:26.114Z,60.74
2022-12-12T14:28:35.726Z,60.81
2022-12-12T14:34:01.950Z,60.90
2022-12-12T14:39:20.876Z,61.39
2022-12-12T14:44:36.740Z,61.44
2022-12-12T14:49:46.537Z,61.26
2022-12-12T14:54:54.763Z,61.03
2022-12-12T15:00:04.996Z,60.87
2022-12-12T15:05:14.755Z,60.73
2022-12-12T15:10:31.013Z,60.60
2022-12-12T15:15:39.033Z,60.53
2022-12-12T15:20:46.995Z,60.27
2022-12-12T15:25:58.954Z,60.40
2022-12-12T15:31:06.740Z,60.11
2022-12-12T15:36:28.208Z,59.97
2022-12-12T15:41:36.549Z,59.80
2022-12-12T15:46:44.805Z,59.72
2022-12-12T15:51:52.688Z,59.70
2022-12-12T15:57:00.436Z,59.76
2022-12-12T16:02:26.377Z,59.79
2022-12-12T16:07:38.278Z,59.85
2022-12-12T16:13:06.981Z,59.93
2022-12-12T16:18:22.446Z,60.07
2022-12-12T16:23:34.453Z,60.17
2022-12-12T16:28:42.347Z,60.26
2022-12-12T16:33:50.855Z,60.31
2022-12-12T16:38:58.835Z,60.34
2022-12-12T16:44:06.434Z,60.49
2022-12-12T16:49:15.651Z,60.68
2022-12-12T16:54:23.839Z,60.82
2022-12-12T16:59:31.721Z,60.93
2022-12-12T17:04:39.482Z,61.02
2022-12-12T17:09:46.981Z,61.27
2022-12-12T17:14:54.968Z,61.44
2022-12-12T17:20:02.567Z,61.81
2022-12-12T17:25:13.011Z,62.14
2022-12-12T17:30:21.859Z,62.30
2022-12-12T17:35:29.833Z,63.08
2022-12-12T17:40:37.487Z,63.59
2022-12-12T17:45:45.517Z,63.95
2022-12-12T17:51:00.475Z,64.32
2022-12-12T17:56:11.206Z,64.62
2022-12-12T18:01:21.820Z,64.75
2022-12-12T18:06:31.953Z,64.85
2022-12-12T18:11:42.282Z,64.86
2022-12-12T18:16:53.604Z,64.94
2022-12-12T18:22:02.207Z,65.09
2022-12-12T18:27:10.073Z,65.29
2022-12-12T18:32:17.604Z,65.30
2022-12-12T18:37:25.536Z,65.19
2022-12-12T18:42:33.275Z,65.18
2022-12-12T18:47:40.867Z,65.18
2022-12-12T18:52:49.076Z,65.08
2022-12-12T18:57:57.552Z,65.00
2022-12-12T19:03:06.720Z,64.90
2022-12-12T19:08:14.767Z,64.65
2022-12-12T19:13:22.556Z,64.82
2022-12-12T19:18:30.357Z,64.86
2022-12-12T19:23:38.610Z,64.79
2022-12-12T19:28:47.632Z,64.76
2022-12-12T19:33:55.617Z,64.66
2022-12-12T19:39:05.493Z,64.45
2022-12-12T19:44:15.312Z,64.35
2022-12-12T19:49:23.179Z,64.12
2022-12-12T19:54:30.937Z,63.94
2022-12-12T19:59:39.360Z,63.84
2022-12-12T20:04:47.124Z,63.76
2022-12-12T20:09:54.970Z,63.79
2022-12-12T20:15:02.560Z,63.86
2022-12-12T20:20:12.546Z,63.83
2022-12-12T20:25:20.554Z,63.89
2022-12-12T20:30:29.376Z,64.06
2022-12-12T20:35:39.472Z,64.15
2022-12-12T20:40:49.227Z,64.22
2022-12-12T20:45:57.483Z,64.28
2022-12-12T20:51:06.519Z,64.40
2022-12-12T20:56:17.918Z,64.53
2022-12-12T21:01:27.396Z,64.59
2022-12-12T21:06:37.960Z,64.65
2022-12-12T21:11:46.216Z,64.79
2022-12-12T21:16:54.164Z,65.01
2022-12-12T21:22:01.795Z,65.14
2022-12-12T21:27:09.647Z,65.13
2022-12-12T21:32:17.445Z,65.12
2022-12-12T21:37:25.112Z,65.07
2022-12-12T21:42:32.930Z,64.99
2022-12-12T21:47:40.687Z,65.03
2022-12-12T21:53:08.598Z,65.04
2022-12-12T21:58:17.206Z,65.00
2022-12-12T22:03:24.545Z,64.92
2022-12-12T22:08:33.391Z,64.78
2022-12-12T22:13:42.947Z,64.57
2022-12-12T22:18:52.129Z,64.33
2022-12-12T22:24:01.075Z,64.18
2022-12-12T22:29:12.223Z,63.86
2022-12-12T22:34:22.078Z,63.63
2022-12-12T22:39:31.700Z,63.34
2022-12-12T22:44:40.178Z,63.29
2022-12-12T22:49:48.196Z,63.22
2022-12-12T22:54:56.384Z,63.10
2022-12-12T23:00:06.908Z,63.01
2022-12-12T23:05:16.427Z,63.13
2022-12-12T23:10:24.571Z,63.34
2022-12-12T23:15:32.855Z,63.30
2022-12-12T23:20:41.267Z,63.24
2022-12-12T23:25:49.874Z,63.23
2022-12-12T23:30:57.565Z,63.31
2022-12-12T23:36:06.058Z,63.33
2022-12-12T23:41:16.705Z,63.47
2022-12-12T23:46:32.703Z,63.56
2022-12-12T23:51:43.277Z,63.39
2022-12-12T23:56:52.245Z,63.39
